Time;durP1;ratioP1;P1;durP2;ratioP2;P2;SDS_P1;SDS_P2;PMS_P1;PMS_P2;Temp;Humidity;BMP_temperature;BMP_pressure;BME280_temperature;BME280_humidity;BME280_pressure;Samples;Min_cycle;Max_cycle;Signal;HPM_P1;HPM_P2
2022/12/16 00:01:29;;;;;;;6.93;3.03;;;-5.30;99.90;;;;;;5048213;28;20035;-80
2022/12/16 00:03:57;;;;;;;6.57;2.53;;;-5.30;99.90;;;;;;5059704;28;20103;-79
2022/12/16 00:06:25;;;;;;;3.03;2.67;;;-5.30;99.90;;;;;;5053935;28;20041;-80
2022/12/16 00:08:51;;;;;;;4.97;3.10;;;-5.30;99.90;;;;;;5054462;28;20056;-80
2022/12/16 00:11:16;;;;;;;9.52;3.33;;;-5.30;99.90;;;;;;5053895;28;20470;-80
2022/12/16 00:13:42;;;;;;;5.95;3.88;;;-5.30;99.90;;;;;;5065185;28;20028;-80
2022/12/16 00:16:13;;;;;;;10.13;4.03;;;-5.30;99.90;;;;;;5048236;28;20063;-81
2022/12/16 00:18:39;;;;;;;10.60;3.95;;;-5.30;99.90;;;;;;5083162;28;20223;-80
2022/12/16 00:21:05;;;;;;;10.82;4.22;;;-5.40;99.90;;;;;;5053008;28;20385;-81
2022/12/16 00:23:31;;;;;;;20.52;6.10;;;-5.30;99.90;;;;;;5048137;28;20033;-80
2022/12/16 00:25:57;;;;;;;8.50;4.72;;;-5.40;99.90;;;;;;5043843;28;20461;-81
2022/12/16 00:28:23;;;;;;;16.67;4.90;;;-5.40;99.90;;;;;;5044289;28;20112;-81
2022/12/16 00:30:51;;;;;;;18.40;5.80;;;-5.40;99.90;;;;;;5046165;28;20052;-80
2022/12/16 00:33:17;;;;;;;11.32;5.40;;;-5.40;99.90;;;;;;5048089;28;20483;-81
2022/12/16 00:35:43;;;;;;;13.55;4.85;;;-5.40;99.90;;;;;;5048980;28;20017;-81
2022/12/16 00:38:10;;;;;;;9.45;4.45;;;-5.40;99.90;;;;;;5041308;28;20445;-79
2022/12/16 00:40:35;;;;;;;10.60;4.40;;;-5.50;99.90;;;;;;5042772;28;20033;-81
2022/12/16 00:43:01;;;;;;;11.35;4.38;;;-5.50;99.90;;;;;;5050417;28;20146;-81
2022/12/16 00:45:27;;;;;;;5.43;3.03;;;-5.50;99.90;;;;;;5053325;28;20036;-80
2022/12/16 00:47:53;;;;;;;4.25;2.80;;;-5.60;99.90;;;;;;5052378;28;20024;-81
2022/12/16 00:50:21;;;;;;;4.28;2.72;;;-5.60;99.90;;;;;;5051378;28;20025;-79
2022/12/16 00:52:48;;;;;;;4.65;2.47;;;-5.60;99.90;;;;;;5054200;28;20498;-81
2022/12/16 00:55:14;;;;;;;2.70;2.50;;;-5.60;99.90;;;;;;5057453;28;20044;-80
2022/12/16 00:57:40;;;;;;;3.03;2.65;;;-5.50;99.90;;;;;;5057748;28;20021;-81
2022/12/16 01:00:11;;;;;;;4.15;2.20;;;-5.60;99.90;;;;;;5048295;28;20032;-81
2022/12/16 01:02:41;;;;;;;3.90;2.00;;;-5.60;99.90;;;;;;5042065;28;20053;-81
2022/12/16 01:05:08;;;;;;;3.83;1.80;;;-5.60;99.90;;;;;;5053885;28;20057;-81
2022/12/16 01:07:34;;;;;;;2.40;1.90;;;-5.70;99.90;;;;;;5047430;28;20040;-81
2022/12/16 01:10:00;;;;;;;3.65;2.00;;;-5.60;99.90;;;;;;5047852;28;20030;-81
2022/12/16 01:12:26;;;;;;;4.35;2.63;;;-5.60;99.90;;;;;;5063677;28;20119;-79
2022/12/16 01:14:51;;;;;;;4.28;2.33;;;-5.60;99.90;;;;;;5052062;28;20094;-81
2022/12/16 01:17:17;;;;;;;3.63;2.92;;;-5.60;99.90;;;;;;5045179;28;20064;-81
2022/12/16 01:19:42;;;;;;;7.10;2.78;;;-5.60;99.90;;;;;;5052900;28;20477;-81
2022/12/16 01:22:10;;;;;;;13.20;3.22;;;-5.60;99.90;;;;;;5055958;28;20078;-81
2022/12/16 01:24:35;;;;;;;5.90;3.15;;;-5.70;99.90;;;;;;5051368;28;20573;-81
2022/12/16 01:27:01;;;;;;;4.25;2.80;;;-5.70;99.90;;;;;;5053276;28;20124;-81
2022/12/16 01:29:26;;;;;;;5.28;2.95;;;-5.70;99.90;;;;;;5047255;28;20469;-81
2022/12/16 01:31:52;;;;;;;4.28;2.10;;;-5.70;99.90;;;;;;5054839;28;20028;-80
2022/12/16 01:34:17;;;;;;;3.40;2.38;;;-5.80;99.90;;;;;;5043652;28;20032;-81
2022/12/16 01:36:43;;;;;;;4.63;2.90;;;-5.80;99.90;;;;;;5045007;28;20108;-81
2022/12/16 01:39:09;;;;;;;2.35;2.15;;;-5.80;99.90;;;;;;5057406;28;20055;-81
2022/12/16 01:41:35;;;;;;;3.55;2.17;;;-5.70;99.90;;;;;;5048783;28;20028;-80
2022/12/16 01:44:22;;;;;;;3.97;1.83;;;-5.70;99.90;;;;;;5040607;28;20040;-81
2022/12/16 01:47:04;;;;;;;4.05;2.25;;;-5.80;99.90;;;;;;5043322;28;20045;-81
2022/12/16 01:49:35;;;;;;;3.08;2.20;;;-5.80;99.90;;;;;;5049989;28;20017;-80
2022/12/16 01:52:04;;;;;;;7.45;2.85;;;-5.80;99.90;;;;;;5046466;28;20083;-81
2022/12/16 01:54:47;;;;;;;7.05;2.00;;;-5.90;99.90;;;;;;5045652;28;20029;-81
2022/12/16 01:57:21;;;;;;;4.53;2.42;;;-5.90;99.90;;;;;;5043259;28;20025;-81
2022/12/16 01:59:50;;;;;;;3.10;1.85;;;-5.90;99.90;;;;;;5047873;28;20503;-81
2022/12/16 02:02:15;;;;;;;2.53;2.33;;;-6.00;99.90;;;;;;5051528;28;20385;-81
2022/12/16 02:07:26;;;;;;;2.35;2.05;;;-6.00;99.90;;;;;;5044343;28;20397;-81
2022/12/16 02:09:52;;;;;;;1.90;1.80;;;-5.90;99.90;;;;;;5047295;28;20116;-81
2022/12/16 02:12:18;;;;;;;5.30;2.20;;;-5.90;99.90;;;;;;5052745;28;20433;-81
2022/12/16 02:15:08;;;;;;;2.30;2.05;;;-5.90;99.90;;;;;;5046019;28;20033;-81
2022/12/16 02:17:59;;;;;;;2.00;1.90;;;-5.80;99.90;;;;;;5046826;28;20056;-81
2022/12/16 02:20:58;;;;;;;3.42;2.22;;;-5.80;99.90;;;;;;5038930;28;20025;-80
2022/12/16 02:23:39;;;;;;;3.10;2.00;;;-5.80;99.90;;;;;;5043311;28;20025;-81
2022/12/16 02:26:48;;;;;;;3.15;2.08;;;-5.80;99.90;;;;;;5048638;28;20036;-81
2022/12/16 02:29:19;;;;;;;2.75;1.90;;;-5.80;99.90;;;;;;5042063;28;20287;-81
2022/12/16 02:32:02;;;;;;;2.35;1.98;;;-5.90;99.90;;;;;;5050476;28;20009;-82
2022/12/16 02:34:36;;;;;;;1.95;1.85;;;-5.90;99.90;;;;;;5040258;28;20108;-81
2022/12/16 02:37:11;;;;;;;10.85;2.30;;;-6.00;99.90;;;;;;5054191;28;20029;-81
2022/12/16 02:39:55;;;;;;;4.82;2.30;;;-6.00;99.90;;;;;;5045216;28;20020;-81
2022/12/16 02:42:38;;;;;;;4.07;2.05;;;-6.10;99.90;;;;;;5038408;28;20037;-81
2022/12/16 02:45:19;;;;;;;2.35;2.15;;;-6.10;99.90;;;;;;5042420;28;20083;-81
2022/12/16 02:47:45;;;;;;;2.63;2.28;;;-6.10;99.90;;;;;;5046087;28;20436;-80
2022/12/16 02:50:19;;;;;;;4.38;2.25;;;-6.10;99.90;;;;;;5045403;28;20037;-80
2022/12/16 02:52:44;;;;;;;9.93;2.42;;;-6.10;99.90;;;;;;5044441;28;20021;-81
2022/12/16 02:55:11;;;;;;;5.90;2.78;;;-6.10;99.90;;;;;;5049744;28;20048;-81
2022/12/16 02:58:18;;;;;;;5.65;2.40;;;-6.10;99.90;;;;;;5044197;28;20090;-81
2022/12/16 03:01:08;;;;;;;4.15;2.42;;;-6.20;99.90;;;;;;5050553;28;20033;-81
2022/12/16 03:03:48;;;;;;;5.90;2.78;;;-6.20;99.90;;;;;;5042328;28;20036;-81
2022/12/16 03:06:17;;;;;;;6.70;3.25;;;-6.10;99.90;;;;;;5047813;28;20040;-81
2022/12/16 03:08:48;;;;;;;4.70;2.78;;;-6.10;99.90;;;;;;5044637;28;20108;-80
2022/12/16 03:11:13;;;;;;;12.15;5.43;;;-6.20;99.90;;;;;;5051053;28;20029;-80
2022/12/16 03:13:46;;;;;;;17.00;5.68;;;-6.20;99.90;;;;;;5049422;28;20078;-80
2022/12/16 03:16:15;;;;;;;9.93;5.95;;;-6.20;99.90;;;;;;5041419;28;20431;-81
2022/12/16 03:18:46;;;;;;;10.45;5.25;;;-6.10;99.90;;;;;;5048420;28;20030;-81
2022/12/16 03:21:14;;;;;;;9.02;5.28;;;-6.10;99.90;;;;;;5044918;28;20470;-82
2022/12/16 03:24:04;;;;;;;9.35;4.93;;;-6.10;99.90;;;;;;5056721;28;20062;-80
2022/12/16 03:26:34;;;;;;;5.95;4.35;;;-6.10;99.90;;;;;;5050237;28;20040;-81
2022/12/16 03:29:06;;;;;;;13.15;4.72;;;-6.10;99.90;;;;;;5059360;28;20024;-81
2022/12/16 03:31:58;;;;;;;12.85;5.22;;;-6.10;99.90;;;;;;5049665;28;20029;-80
2022/12/16 03:34:31;;;;;;;6.90;4.03;;;-6.10;99.90;;;;;;5041840;28;20534;-81
2022/12/16 03:37:01;;;;;;;6.35;3.88;;;-6.10;99.90;;;;;;5051004;28;20066;-80
2022/12/16 03:39:28;;;;;;;6.40;4.10;;;-6.10;99.90;;;;;;5038182;28;20060;-81
2022/12/16 03:41:55;;;;;;;5.63;3.08;;;-6.10;99.90;;;;;;5050913;28;20377;-80
2022/12/16 03:44:24;;;;;;;5.80;3.03;;;-6.00;99.90;;;;;;5054220;28;20127;-81
2022/12/16 03:46:50;;;;;;;4.40;2.70;;;-6.00;99.90;;;;;;5055422;28;20043;-81
2022/12/16 03:49:15;;;;;;;5.13;2.80;;;-6.00;99.90;;;;;;5052571;28;20108;-81
2022/12/16 03:51:41;;;;;;;11.88;3.00;;;-6.00;99.90;;;;;;5050741;28;20108;-80
2022/12/16 03:54:07;;;;;;;3.83;2.42;;;-6.10;99.90;;;;;;5055974;28;20033;-81
2022/12/16 03:56:32;;;;;;;6.20;3.53;;;-6.10;99.90;;;;;;5050081;28;20367;-80
2022/12/16 03:58:59;;;;;;;5.50;3.13;;;-6.10;99.90;;;;;;5051972;28;20119;-81
2022/12/16 04:01:27;;;;;;;4.13;2.90;;;-6.20;99.90;;;;;;5050333;28;20436;-79
2022/12/16 04:03:53;;;;;;;9.02;3.40;;;-6.20;99.90;;;;;;5047215;28;20064;-81
2022/12/16 04:06:18;;;;;;;6.35;3.25;;;-6.20;99.90;;;;;;5056050;28;20060;-81
2022/12/16 04:08:45;;;;;;;4.78;3.20;;;-6.20;99.90;;;;;;5054838;28;20028;-81
2022/12/16 04:25:32;;;;;;;3.45;2.85;;;-6.30;99.90;;;;;;5052576;28;20544;-81
2022/12/16 04:27:59;;;;;;;4.25;3.13;;;-6.30;99.90;;;;;;5039337;28;20041;-80
2022/12/16 04:30:26;;;;;;;5.30;2.70;;;-6.30;99.90;;;;;;5047505;28;20025;-79
